sensor_id;sensor_type;location;lat;lon;timestamp;P1;durP1;ratioP1;P2;durP2;ratioP2
46078;SDS011;31820;51.880;-0.518;2022-11-15T00:01:45;3.63;;;1.45;;
46078;SDS011;31820;51.880;-0.518;2022-11-15T00:04:10;1.80;;;1.30;;
46078;SDS011;31820;51.880;-0.518;2022-11-15T00:06:36;2.47;;;1.20;;
46078;SDS011;31820;51.880;-0.518;2022-11-15T00:09:02;3.03;;;1.48;;
46078;SDS011;31820;51.880;-0.518;2022-11-15T00:11:28;2.23;;;1.17;;
46078;SDS011;31820;51.880;-0.518;2022-11-15T00:13:55;2.95;;;1.20;;
46078;SDS011;31820;51.880;-0.518;2022-11-15T00:16:21;3.13;;;1.00;;
46078;SDS011;31820;51.880;-0.518;2022-11-15T00:18:47;2.67;;;1.20;;
46078;SDS011;31820;51.880;-0.518;2022-11-15T00:21:13;2.97;;;1.40;;
46078;SDS011;31820;51.880;-0.518;2022-11-15T00:23:39;2.42;;;1.30;;
46078;SDS011;31820;51.880;-0.518;2022-11-15T00:26:05;3.42;;;1.23;;
46078;SDS011;31820;51.880;-0.518;2022-11-15T00:28:31;3.08;;;1.40;;
46078;SDS011;31820;51.880;-0.518;2022-11-15T00:31:01;2.42;;;1.27;;
46078;SDS011;31820;51.880;-0.518;2022-11-15T00:33:30;2.70;;;1.30;;
46078;SDS011;31820;51.880;-0.518;2022-11-15T00:36:00;1.85;;;1.00;;
46078;SDS011;31820;51.880;-0.518;2022-11-15T00:38:34;2.75;;;1.00;;
46078;SDS011;31820;51.880;-0.518;2022-11-15T00:41:01;4.13;;;1.33;;
46078;SDS011;31820;51.880;-0.518;2022-11-15T00:43:27;1.77;;;1.10;;
46078;SDS011;31820;51.880;-0.518;2022-11-15T00:45:53;1.70;;;0.90;;
46078;SDS011;31820;51.880;-0.518;2022-11-15T00:48:18;3.03;;;1.30;;
46078;SDS011;31820;51.880;-0.518;2022-11-15T00:50:44;1.52;;;0.90;;
46078;SDS011;31820;51.880;-0.518;2022-11-15T00:53:09;2.70;;;1.27;;
46078;SDS011;31820;51.880;-0.518;2022-11-15T00:55:35;2.03;;;0.95;;
46078;SDS011;31820;51.880;-0.518;2022-11-15T00:58:00;2.35;;;0.77;;
46078;SDS011;31820;51.880;-0.518;2022-11-15T01:00:26;2.03;;;1.25;;
46078;SDS011;31820;51.880;-0.518;2022-11-15T01:02:51;2.22;;;1.00;;
46078;SDS011;31820;51.880;-0.518;2022-11-15T01:05:17;1.77;;;1.10;;
46078;SDS011;31820;51.880;-0.518;2022-11-15T01:07:42;2.28;;;0.95;;
46078;SDS011;31820;51.880;-0.518;2022-11-15T01:10:08;2.13;;;1.23;;
46078;SDS011;31820;51.880;-0.518;2022-11-15T01:12:34;2.10;;;0.85;;
46078;SDS011;31820;51.880;-0.518;2022-11-15T01:14:59;2.38;;;1.10;;
46078;SDS011;31820;51.880;-0.518;2022-11-15T01:17:25;1.55;;;0.73;;
46078;SDS011;31820;51.880;-0.518;2022-11-15T01:19:51;1.80;;;0.80;;
46078;SDS011;31820;51.880;-0.518;2022-11-15T01:22:16;2.72;;;1.23;;
46078;SDS011;31820;51.880;-0.518;2022-11-15T01:24:42;3.65;;;1.35;;
46078;SDS011;31820;51.880;-0.518;2022-11-15T01:27:08;3.20;;;1.05;;
46078;SDS011;31820;51.880;-0.518;2022-11-15T01:29:33;1.73;;;0.80;;
46078;SDS011;31820;51.880;-0.518;2022-11-15T01:31:59;2.40;;;1.10;;
46078;SDS011;31820;51.880;-0.518;2022-11-15T01:34:25;1.67;;;0.68;;
46078;SDS011;31820;51.880;-0.518;2022-11-15T01:36:50;3.05;;;0.77;;
46078;SDS011;31820;51.880;-0.518;2022-11-15T01:39:16;2.25;;;0.95;;
46078;SDS011;31820;51.880;-0.518;2022-11-15T01:41:41;1.33;;;0.75;;
46078;SDS011;31820;51.880;-0.518;2022-11-15T01:47:20;2.40;;;1.00;;
46078;SDS011;31820;51.880;-0.518;2022-11-15T01:49:51;2.60;;;1.02;;
46078;SDS011;31820;51.880;-0.518;2022-11-15T01:52:23;2.63;;;1.02;;
46078;SDS011;31820;51.880;-0.518;2022-11-15T01:54:53;3.17;;;0.85;;
46078;SDS011;31820;51.880;-0.518;2022-11-15T01:57:25;2.60;;;0.75;;
46078;SDS011;31820;51.880;-0.518;2022-11-15T01:59:51;2.25;;;0.65;;
46078;SDS011;31820;51.880;-0.518;2022-11-15T02:02:17;1.48;;;0.77;;
46078;SDS011;31820;51.880;-0.518;2022-11-15T02:04:46;2.25;;;0.65;;
46078;SDS011;31820;51.880;-0.518;2022-11-15T02:07:13;2.05;;;0.90;;
46078;SDS011;31820;51.880;-0.518;2022-11-15T02:09:42;2.25;;;0.70;;
46078;SDS011;31820;51.880;-0.518;2022-11-15T02:12:08;2.47;;;0.73;;
46078;SDS011;31820;51.880;-0.518;2022-11-15T02:14:38;3.38;;;0.70;;
46078;SDS011;31820;51.880;-0.518;2022-11-15T02:34:25;1.88;;;0.60;;
46078;SDS011;31820;51.880;-0.518;2022-11-15T02:42:07;2.17;;;0.60;;
46078;SDS011;31820;51.880;-0.518;2022-11-15T02:44:58;1.67;;;0.60;;
46078;SDS011;31820;51.880;-0.518;2022-11-15T02:47:28;1.58;;;0.60;;
46078;SDS011;31820;51.880;-0.518;2022-11-15T02:50:03;1.60;;;0.50;;
46078;SDS011;31820;51.880;-0.518;2022-11-15T02:52:34;2.50;;;0.65;;
46078;SDS011;31820;51.880;-0.518;2022-11-15T02:55:00;1.55;;;0.80;;
46078;SDS011;31820;51.880;-0.518;2022-11-15T02:57:41;5.13;;;0.80;;
46078;SDS011;31820;51.880;-0.518;2022-11-15T03:00:19;1.83;;;0.50;;
46078;SDS011;31820;51.880;-0.518;2022-11-15T03:05:33;2.97;;;0.73;;
46078;SDS011;31820;51.880;-0.518;2022-11-15T03:08:09;2.33;;;0.50;;
46078;SDS011;31820;51.880;-0.518;2022-11-15T03:16:34;1.10;;;0.60;;
46078;SDS011;31820;51.880;-0.518;2022-11-15T03:21:42;1.77;;;0.70;;
46078;SDS011;31820;51.880;-0.518;2022-11-15T03:24:10;2.28;;;0.70;;
46078;SDS011;31820;51.880;-0.518;2022-11-15T03:26:39;2.92;;;1.05;;
46078;SDS011;31820;51.880;-0.518;2022-11-15T03:29:12;1.42;;;0.68;;
46078;SDS011;31820;51.880;-0.518;2022-11-15T03:31:46;1.67;;;0.70;;
46078;SDS011;31820;51.880;-0.518;2022-11-15T03:34:24;1.75;;;0.63;;
46078;SDS011;31820;51.880;-0.518;2022-11-15T03:36:51;1.75;;;0.75;;
46078;SDS011;31820;51.880;-0.518;2022-11-15T03:39:17;2.65;;;0.70;;
46078;SDS011;31820;51.880;-0.518;2022-11-15T03:44:54;3.00;;;0.63;;
46078;SDS011;31820;51.880;-0.518;2022-11-15T03:47:41;1.38;;;0.45;;
46078;SDS011;31820;51.880;-0.518;2022-11-15T03:50:17;1.52;;;0.60;;
46078;SDS011;31820;51.880;-0.518;2022-11-15T03:52:45;1.13;;;0.50;;
46078;SDS011;31820;51.880;-0.518;2022-11-15T03:55:13;1.15;;;0.45;;
46078;SDS011;31820;51.880;-0.518;2022-11-15T03:57:41;2.05;;;0.50;;
46078;SDS011;31820;51.880;-0.518;2022-11-15T04:00:07;1.27;;;0.50;;
46078;SDS011;31820;51.880;-0.518;2022-11-15T04:02:33;1.73;;;0.57;;
46078;SDS011;31820;51.880;-0.518;2022-11-15T04:04:59;3.88;;;1.08;;
46078;SDS011;31820;51.880;-0.518;2022-11-15T04:07:24;2.00;;;0.60;;
46078;SDS011;31820;51.880;-0.518;2022-11-15T04:09:50;3.85;;;0.95;;
46078;SDS011;31820;51.880;-0.518;2022-11-15T04:12:34;1.55;;;0.45;;
46078;SDS011;31820;51.880;-0.518;2022-11-15T04:15:07;1.58;;;0.60;;
46078;SDS011;31820;51.880;-0.518;2022-11-15T04:17:44;1.88;;;0.50;;
46078;SDS011;31820;51.880;-0.518;2022-11-15T04:23:02;2.45;;;0.40;;
46078;SDS011;31820;51.880;-0.518;2022-11-15T04:25:49;1.83;;;0.55;;
46078;SDS011;31820;51.880;-0.518;2022-11-15T04:28:16;3.22;;;0.70;;
46078;SDS011;31820;51.880;-0.518;2022-11-15T04:30:43;1.30;;;0.60;;
46078;SDS011;31820;51.880;-0.518;2022-11-15T04:33:08;1.55;;;0.60;;
46078;SDS011;31820;51.880;-0.518;2022-11-15T04:35:34;1.92;;;0.70;;
46078;SDS011;31820;51.880;-0.518;2022-11-15T04:38:00;2.10;;;0.60;;
46078;SDS011;31820;51.880;-0.518;2022-11-15T04:40:26;1.15;;;0.50;;
46078;SDS011;31820;51.880;-0.518;2022-11-15T04:42:52;2.13;;;0.60;;
46078;SDS011;31820;51.880;-0.518;2022-11-15T04:45:17;1.17;;;0.60;;
46078;SDS011;31820;51.880;-0.518;2022-11-15T04:47:44;1.35;;;0.50;;
46078;SDS011;31820;51.880;-0.518;2022-11-15T04:50:10;1.95;;;0.80;;
46078;SDS011;31820;51.880;-0.518;2022-11-15T04:52:52;2.67;;;0.68;;
46078;SDS011;31820;51.880;-0.518;2022-11-15T04:55:18;1.65;;;0.60;;
46078;SDS011;31820;51.880;-0.518;2022-11-15T04:57:45;1.85;;;0.45;;
46078;SDS011;31820;51.880;-0.518;2022-11-15T05:00:11;2.63;;;0.65;;
46078;SDS011;31820;51.880;-0.518;2022-11-15T05:02:40;1.35;;;0.45;;
46078;SDS011;31820;51.880;-0.518;2022-11-15T05:05:24;3.33;;;0.60;;
46078;SDS011;31820;51.880;-0.518;2022-11-15T05:07:50;4.55;;;0.93;;
46078;SDS011;31820;51.880;-0.518;2022-11-15T05:10:15;2.08;;;0.47;;
46078;SDS011;31820;51.880;-0.518;2022-11-15T05:12:41;2.13;;;0.50;;
46078;SDS011;31820;51.880;-0.518;2022-11-15T05:15:07;2.53;;;1.05;;
46078;SDS011;31820;51.880;-0.518;2022-11-15T05:17:32;2.33;;;0.60;;
46078;SDS011;31820;51.880;-0.518;2022-11-15T05:19:58;1.98;;;0.50;;
46078;SDS011;31820;51.880;-0.518;2022-11-15T05:22:23;2.40;;;0.80;;
46078;SDS011;31820;51.880;-0.518;2022-11-15T05:24:49;1.45;;;0.50;;
46078;SDS011;31820;51.880;-0.518;2022-11-15T05:27:14;2.38;;;0.40;;
46078;SDS011;31820;51.880;-0.518;2022-11-15T05:29:40;3.03;;;0.70;;
46078;SDS011;31820;51.880;-0.518;2022-11-15T05:32:06;2.78;;;0.52;;
46078;SDS011;31820;51.880;-0.518;2022-11-15T05:34:33;3.47;;;0.52;;
46078;SDS011;31820;51.880;-0.518;2022-11-15T05:36:58;1.90;;;0.73;;
46078;SDS011;31820;51.880;-0.518;2022-11-15T05:39:24;2.00;;;0.60;;
46078;SDS011;31820;51.880;-0.518;2022-11-15T05:41:52;3.45;;;0.70;;
46078;SDS011;31820;51.880;-0.518;2022-11-15T05:44:22;2.45;;;0.52;;
46078;SDS011;31820;51.880;-0.518;2022-11-15T05:46:49;2.92;;;0.50;;
46078;SDS011;31820;51.880;-0.518;2022-11-15T05:49:19;2.92;;;0.52;;
46078;SDS011;31820;51.880;-0.518;2022-11-15T05:51:47;2.30;;;1.02;;
46078;SDS011;31820;51.880;-0.518;2022-11-15T05:54:14;2.63;;;0.60;;
46078;SDS011;31820;51.880;-0.518;2022-11-15T05:56:41;2.88;;;0.50;;
46078;SDS011;31820;51.880;-0.518;2022-11-15T05:59:08;3.42;;;0.70;;
46078;SDS011;31820;51.880;-0.518;2022-11-15T06:01:35;2.50;;;0.70;;
46078;SDS011;31820;51.880;-0.518;2022-11-15T06:04:01;2.83;;;0.60;;
46078;SDS011;31820;51.880;-0.518;2022-11-15T06:06:28;4.28;;;0.80;;
46078;SDS011;31820;51.880;-0.518;2022-11-15T06:08:53;2.17;;;0.70;;
46078;SDS011;31820;51.880;-0.518;2022-11-15T06:11:19;3.10;;;0.68;;
46078;SDS011;31820;51.880;-0.518;2022-11-15T06:13:44;4.55;;;0.60;;
46078;SDS011;31820;51.880;-0.518;2022-11-15T06:16:10;3.63;;;0.52;;
46078;SDS011;31820;51.880;-0.518;2022-11-15T06:18:36;3.33;;;0.43;;
46078;SDS011;31820;51.880;-0.518;2022-11-15T06:21:01;1.80;;;0.68;;
46078;SDS011;31820;51.880;-0.518;2022-11-15T06:23:28;2.13;;;0.90;;
46078;SDS011;31820;51.880;-0.518;2022-11-15T06:25:57;2.58;;;0.60;;
46078;SDS011;31820;51.880;-0.518;2022-11-15T06:28:24;3.43;;;0.67;;
46078;SDS011;31820;51.880;-0.518;2022-11-15T06:30:49;2.97;;;0.70;;
46078;SDS011;31820;51.880;-0.518;2022-11-15T06:33:15;4.00;;;0.70;;
46078;SDS011;31820;51.880;-0.518;2022-11-15T06:35:40;3.97;;;0.68;;
46078;SDS011;31820;51.880;-0.518;2022-11-15T06:38:07;3.90;;;0.55;;
46078;SDS011;31820;51.880;-0.518;2022-11-15T06:40:34;1.73;;;0.40;;
46078;SDS011;31820;51.880;-0.518;2022-11-15T06:45:27;2.63;;;0.65;;
46078;SDS011;31820;51.880;-0.518;2022-11-15T06:47:52;1.55;;;0.50;;
46078;SDS011;31820;51.880;-0.518;2022-11-15T06:50:18;2.70;;;0.70;;
46078;SDS011;31820;51.880;-0.518;2022-11-15T06:52:43;2.17;;;0.50;;
46078;SDS011;31820;51.880;-0.518;2022-11-15T06:55:09;2.38;;;0.52;;
46078;SDS011;31820;51.880;-0.518;2022-11-15T06:57:35;2.97;;;0.60;;
46078;SDS011;31820;51.880;-0.518;2022-11-15T07:00:02;1.33;;;0.50;;
46078;SDS011;31820;51.880;-0.518;2022-11-15T07:02:29;4.50;;;0.70;;
46078;SDS011;31820;51.880;-0.518;2022-11-15T07:04:55;2.08;;;0.57;;
46078;SDS011;31820;51.880;-0.518;2022-11-15T07:07:20;1.45;;;0.50;;
46078;SDS011;31820;51.880;-0.518;2022-11-15T07:09:46;4.25;;;0.82;;
46078;SDS011;31820;51.880;-0.518;2022-11-15T07:12:11;4.07;;;0.60;;
46078;SDS011;31820;51.880;-0.518;2022-11-15T07:14:36;3.78;;;0.95;;
46078;SDS011;31820;51.880;-0.518;2022-11-15T07:17:05;2.42;;;0.70;;
46078;SDS011;31820;51.880;-0.518;2022-11-15T07:19:31;2.53;;;0.40;;
46078;SDS011;31820;51.880;-0.518;2022-11-15T07:21:57;1.00;;;0.30;;
46078;SDS011;31820;51.880;-0.518;2022-11-15T07:24:22;2.70;;;0.57;;
46078;SDS011;31820;51.880;-0.518;2022-11-15T07:26:48;3.85;;;0.60;;
46078;SDS011;31820;51.880;-0.518;2022-11-15T07:29:13;2.90;;;0.77;;
46078;SDS011;31820;51.880;-0.518;2022-11-15T07:31:38;2.08;;;0.60;;
46078;SDS011;31820;51.880;-0.518;2022-11-15T07:34:04;1.67;;;0.57;;
46078;SDS011;31820;51.880;-0.518;2022-11-15T07:36:29;2.60;;;0.60;;
46078;SDS011;31820;51.880;-0.518;2022-11-15T07:38:55;1.73;;;0.50;;
46078;SDS011;31820;51.880;-0.518;2022-11-15T07:41:20;1.98;;;0.50;;
46078;SDS011;31820;51.880;-0.518;2022-11-15T07:43:46;2.20;;;0.65;;
46078;SDS011;31820;51.880;-0.518;2022-11-15T07:46:11;2.90;;;0.82;;
46078;SDS011;31820;51.880;-0.518;2022-11-15T07:48:37;3.35;;;0.55;;
46078;SDS011;31820;51.880;-0.518;2022-11-15T07:51:05;1.83;;;0.60;;
46078;SDS011;31820;51.880;-0.518;2022-11-15T07:53:31;1.35;;;0.47;;
46078;SDS011;31820;51.880;-0.518;2022-11-15T07:55:57;1.52;;;0.40;;
46078;SDS011;31820;51.880;-0.518;2022-11-15T07:58:22;1.45;;;0.55;;
46078;SDS011;31820;51.880;-0.518;2022-11-15T08:00:48;3.50;;;0.40;;
46078;SDS011;31820;51.880;-0.518;2022-11-15T08:03:14;2.13;;;0.50;;
46078;SDS011;31820;51.880;-0.518;2022-11-15T08:05:41;2.85;;;0.70;;
46078;SDS011;31820;51.880;-0.518;2022-11-15T08:08:08;1.90;;;0.40;;
46078;SDS011;31820;51.880;-0.518;2022-11-15T08:13:01;1.30;;;0.40;;
46078;SDS011;31820;51.880;-0.518;2022-11-15T08:15:32;2.53;;;0.52;;
46078;SDS011;31820;51.880;-0.518;2022-11-15T08:17:59;1.55;;;0.30;;
46078;SDS011;31820;51.880;-0.518;2022-11-15T08:20:27;1.17;;;0.40;;
46078;SDS011;31820;51.880;-0.518;2022-11-15T08:22:57;1.15;;;0.40;;
46078;SDS011;31820;51.880;-0.518;2022-11-15T08:25:27;1.40;;;0.30;;
46078;SDS011;31820;51.880;-0.518;2022-11-15T08:27:54;1.63;;;0.40;;
46078;SDS011;31820;51.880;-0.518;2022-11-15T08:30:22;2.97;;;0.50;;
46078;SDS011;31820;51.880;-0.518;2022-11-15T08:32:48;3.78;;;0.60;;
46078;SDS011;31820;51.880;-0.518;2022-11-15T08:35:14;3.72;;;0.55;;
46078;SDS011;31820;51.880;-0.518;2022-11-15T08:37:40;2.55;;;0.43;;
46078;SDS011;31820;51.880;-0.518;2022-11-15T08:40:06;1.63;;;0.40;;
46078;SDS011;31820;51.880;-0.518;2022-11-15T08:42:32;1.48;;;0.30;;
46078;SDS011;31820;51.880;-0.518;2022-11-15T08:44:57;1.73;;;0.47;;
46078;SDS011;31820;51.880;-0.518;2022-11-15T08:47:23;1.73;;;0.30;;
46078;SDS011;31820;51.880;-0.518;2022-11-15T08:49:49;1.02;;;0.40;;
46078;SDS011;31820;51.880;-0.518;2022-11-15T08:52:14;1.27;;;0.47;;
46078;SDS011;31820;51.880;-0.518;2022-11-15T08:54:40;2.70;;;0.50;;
46078;SDS011;31820;51.880;-0.518;2022-11-15T08:57:06;1.58;;;0.32;;
46078;SDS011;31820;51.880;-0.518;2022-11-15T08:59:32;0.43;;;0.20;;
46078;SDS011;31820;51.880;-0.518;2022-11-15T09:01:57;1.58;;;0.20;;
46078;SDS011;31820;51.880;-0.518;2022-11-15T09:04:23;1.20;;;0.30;;
46078;SDS011;31820;51.880;-0.518;2022-11-15T09:06:48;1.30;;;0.30;;
46078;SDS011;31820;51.880;-0.518;2022-11-15T09:09:14;1.50;;;0.40;;
46078;SDS011;31820;51.880;-0.518;2022-11-15T09:11:39;0.70;;;0.30;;
46078;SDS011;31820;51.880;-0.518;2022-11-15T09:14:05;1.70;;;0.30;;
46078;SDS011;31820;51.880;-0.518;2022-11-15T09:16:31;1.98;;;0.28;;
46078;SDS011;31820;51.880;-0.518;2022-11-15T09:18:56;1.15;;;0.50;;
46078;SDS011;31820;51.880;-0.518;2022-11-15T09:21:22;0.68;;;0.20;;
46078;SDS011;31820;51.880;-0.518;2022-11-15T09:23:51;2.38;;;0.38;;
46078;SDS011;31820;51.880;-0.518;2022-11-15T09:26:17;1.60;;;0.38;;
46078;SDS011;31820;51.880;-0.518;2022-11-15T09:28:43;0.90;;;0.20;;
46078;SDS011;31820;51.880;-0.518;2022-11-15T09:31:09;1.77;;;0.22;;
46078;SDS011;31820;51.880;-0.518;2022-11-15T09:33:35;3.90;;;0.40;;
46078;SDS011;31820;51.880;-0.518;2022-11-15T09:36:06;1.08;;;0.50;;
46078;SDS011;31820;51.880;-0.518;2022-11-15T09:38:33;1.83;;;0.20;;
46078;SDS011;31820;51.880;-0.518;2022-11-15T09:41:08;1.08;;;0.30;;
46078;SDS011;31820;51.880;-0.518;2022-11-15T09:43:50;0.93;;;0.40;;
46078;SDS011;31820;51.880;-0.518;2022-11-15T09:48:59;1.80;;;0.40;;
46078;SDS011;31820;51.880;-0.518;2022-11-15T09:56:35;1.33;;;0.30;;
46078;SDS011;31820;51.880;-0.518;2022-11-15T09:59:10;0.75;;;0.20;;
46078;SDS011;31820;51.880;-0.518;2022-11-15T10:04:42;2.80;;;0.73;;
46078;SDS011;31820;51.880;-0.518;2022-11-15T10:10:13;2.63;;;0.50;;
46078;SDS011;31820;51.880;-0.518;2022-11-15T10:12:46;0.43;;;0.20;;
46078;SDS011;31820;51.880;-0.518;2022-11-15T10:15:15;2.13;;;0.50;;
46078;SDS011;31820;51.880;-0.518;2022-11-15T10:20:44;1.30;;;0.30;;
46078;SDS011;31820;51.880;-0.518;2022-11-15T10:23:17;1.80;;;0.30;;
46078;SDS011;31820;51.880;-0.518;2022-11-15T10:25:45;2.45;;;0.20;;
46078;SDS011;31820;51.880;-0.518;2022-11-15T10:28:13;0.88;;;0.20;;
46078;SDS011;31820;51.880;-0.518;2022-11-15T10:30:40;0.60;;;0.47;;
46078;SDS011;31820;51.880;-0.518;2022-11-15T10:33:21;1.75;;;0.20;;
46078;SDS011;31820;51.880;-0.518;2022-11-15T10:38:56;0.68;;;0.20;;
46078;SDS011;31820;51.880;-0.518;2022-11-15T10:46:32;1.67;;;0.30;;
46078;SDS011;31820;51.880;-0.518;2022-11-15T10:49:19;0.57;;;0.20;;
46078;SDS011;31820;51.880;-0.518;2022-11-15T10:54:22;1.25;;;0.30;;
46078;SDS011;31820;51.880;-0.518;2022-11-15T10:56:50;1.77;;;0.30;;
46078;SDS011;31820;51.880;-0.518;2022-11-15T10:59:23;3.08;;;0.65;;
46078;SDS011;31820;51.880;-0.518;2022-11-15T11:01:55;2.85;;;0.38;;
46078;SDS011;31820;51.880;-0.518;2022-11-15T11:04:20;3.65;;;0.80;;
46078;SDS011;31820;51.880;-0.518;2022-11-15T11:06:56;4.30;;;0.90;;
46078;SDS011;31820;51.880;-0.518;2022-11-15T11:12:03;3.67;;;1.08;;
46078;SDS011;31820;51.880;-0.518;2022-11-15T11:14:35;1.45;;;0.40;;
46078;SDS011;31820;51.880;-0.518;2022-11-15T11:27:43;4.50;;;0.90;;
46078;SDS011;31820;51.880;-0.518;2022-11-15T11:33:32;1.83;;;0.50;;
46078;SDS011;31820;51.880;-0.518;2022-11-15T11:45:20;3.60;;;0.70;;
46078;SDS011;31820;51.880;-0.518;2022-11-15T11:47:58;2.63;;;0.60;;
46078;SDS011;31820;51.880;-0.518;2022-11-15T11:50:32;4.00;;;0.60;;
46078;SDS011;31820;51.880;-0.518;2022-11-15T12:03:41;10.07;;;2.40;;
46078;SDS011;31820;51.880;-0.518;2022-11-15T12:11:58;14.02;;;3.40;;
46078;SDS011;31820;51.880;-0.518;2022-11-15T12:14:51;8.68;;;3.05;;
46078;SDS011;31820;51.880;-0.518;2022-11-15T12:17:36;10.07;;;4.20;;
46078;SDS011;31820;51.880;-0.518;2022-11-15T12:20:04;8.77;;;3.92;;
46078;SDS011;31820;51.880;-0.518;2022-11-15T12:22:43;9.13;;;4.00;;
46078;SDS011;31820;51.880;-0.518;2022-11-15T12:30:19;10.13;;;4.18;;
46078;SDS011;31820;51.880;-0.518;2022-11-15T12:38:02;9.27;;;4.53;;
46078;SDS011;31820;51.880;-0.518;2022-11-15T12:40:30;9.18;;;5.20;;
46078;SDS011;31820;51.880;-0.518;2022-11-15T12:45:36;12.88;;;5.15;;
46078;SDS011;31820;51.880;-0.518;2022-11-15T13:01:09;7.18;;;5.15;;
46078;SDS011;31820;51.880;-0.518;2022-11-15T13:03:35;13.67;;;5.07;;
46078;SDS011;31820;51.880;-0.518;2022-11-15T13:06:38;10.32;;;6.00;;
46078;SDS011;31820;51.880;-0.518;2022-11-15T13:09:49;8.48;;;5.90;;
46078;SDS011;31820;51.880;-0.518;2022-11-15T13:11:58;14.25;;;7.57;;
46078;SDS011;31820;51.880;-0.518;2022-11-15T13:15:30;12.50;;;8.40;;
46078;SDS011;31820;51.880;-0.518;2022-11-15T13:19:52;13.48;;;8.38;;
46078;SDS011;31820;51.880;-0.518;2022-11-15T13:22:18;13.80;;;8.80;;
46078;SDS011;31820;51.880;-0.518;2022-11-15T13:25:02;13.10;;;9.57;;
46078;SDS011;31820;51.880;-0.518;2022-11-15T13:27:28;18.03;;;11.20;;
46078;SDS011;31820;51.880;-0.518;2022-11-15T13:29:54;14.93;;;9.50;;
46078;SDS011;31820;51.880;-0.518;2022-11-15T13:32:20;14.68;;;9.80;;
46078;SDS011;31820;51.880;-0.518;2022-11-15T13:34:47;17.65;;;10.98;;
46078;SDS011;31820;51.880;-0.518;2022-11-15T13:39:45;15.15;;;10.18;;
46078;SDS011;31820;51.880;-0.518;2022-11-15T13:42:14;15.30;;;10.15;;
46078;SDS011;31820;51.880;-0.518;2022-11-15T13:44:40;18.05;;;10.15;;
46078;SDS011;31820;51.880;-0.518;2022-11-15T13:47:29;22.75;;;13.27;;
46078;SDS011;31820;51.880;-0.518;2022-11-15T13:49:57;14.40;;;9.70;;
46078;SDS011;31820;51.880;-0.518;2022-11-15T13:52:24;18.08;;;11.02;;
46078;SDS011;31820;51.880;-0.518;2022-11-15T13:55:04;19.45;;;11.15;;
46078;SDS011;31820;51.880;-0.518;2022-11-15T14:03:06;16.02;;;11.27;;
46078;SDS011;31820;51.880;-0.518;2022-11-15T14:05:32;18.15;;;13.13;;
46078;SDS011;31820;51.880;-0.518;2022-11-15T14:08:01;16.75;;;12.23;;
46078;SDS011;31820;51.880;-0.518;2022-11-15T14:10:33;19.27;;;13.35;;
46078;SDS011;31820;51.880;-0.518;2022-11-15T14:13:00;12.77;;;8.85;;
46078;SDS011;31820;51.880;-0.518;2022-11-15T14:17:54;12.05;;;8.35;;
46078;SDS011;31820;51.880;-0.518;2022-11-15T14:22:53;12.48;;;8.48;;
46078;SDS011;31820;51.880;-0.518;2022-11-15T14:25:23;12.73;;;8.75;;
46078;SDS011;31820;51.880;-0.518;2022-11-15T14:30:40;16.23;;;9.70;;
46078;SDS011;31820;51.880;-0.518;2022-11-15T14:33:21;17.40;;;11.63;;
46078;SDS011;31820;51.880;-0.518;2022-11-15T14:35:49;20.63;;;11.30;;
46078;SDS011;31820;51.880;-0.518;2022-11-15T14:38:16;17.02;;;11.68;;
46078;SDS011;31820;51.880;-0.518;2022-11-15T14:40:42;17.05;;;10.82;;
46078;SDS011;31820;51.880;-0.518;2022-11-15T14:43:08;17.60;;;10.98;;
46078;SDS011;31820;51.880;-0.518;2022-11-15T14:45:36;17.98;;;11.63;;
46078;SDS011;31820;51.880;-0.518;2022-11-15T14:48:02;16.70;;;11.23;;
46078;SDS011;31820;51.880;-0.518;2022-11-15T14:50:28;21.17;;;11.60;;
46078;SDS011;31820;51.880;-0.518;2022-11-15T14:52:53;18.98;;;10.60;;
46078;SDS011;31820;51.880;-0.518;2022-11-15T14:55:21;15.38;;;10.40;;
46078;SDS011;31820;51.880;-0.518;2022-11-15T14:57:49;20.92;;;10.93;;
46078;SDS011;31820;51.880;-0.518;2022-11-15T15:00:15;15.15;;;9.27;;
46078;SDS011;31820;51.880;-0.518;2022-11-15T15:02:42;19.27;;;12.10;;
46078;SDS011;31820;51.880;-0.518;2022-11-15T15:05:18;20.42;;;12.00;;
46078;SDS011;31820;51.880;-0.518;2022-11-15T15:07:46;17.05;;;12.75;;
46078;SDS011;31820;51.880;-0.518;2022-11-15T15:10:13;17.55;;;11.82;;
46078;SDS011;31820;51.880;-0.518;2022-11-15T15:12:39;18.05;;;11.05;;
46078;SDS011;31820;51.880;-0.518;2022-11-15T15:15:05;15.57;;;10.13;;
46078;SDS011;31820;51.880;-0.518;2022-11-15T15:17:37;14.20;;;10.23;;
46078;SDS011;31820;51.880;-0.518;2022-11-15T15:20:03;16.33;;;10.48;;
46078;SDS011;31820;51.880;-0.518;2022-11-15T15:22:28;17.42;;;11.18;;
46078;SDS011;31820;51.880;-0.518;2022-11-15T15:24:55;13.87;;;9.37;;
46078;SDS011;31820;51.880;-0.518;2022-11-15T15:27:21;15.45;;;10.75;;
46078;SDS011;31820;51.880;-0.518;2022-11-15T15:29:46;17.40;;;11.15;;
46078;SDS011;31820;51.880;-0.518;2022-11-15T15:32:11;13.15;;;9.88;;
46078;SDS011;31820;51.880;-0.518;2022-11-15T15:34:38;18.57;;;11.13;;
46078;SDS011;31820;51.880;-0.518;2022-11-15T15:37:08;15.05;;;10.35;;
46078;SDS011;31820;51.880;-0.518;2022-11-15T15:39:48;18.85;;;11.82;;
46078;SDS011;31820;51.880;-0.518;2022-11-15T15:42:14;15.53;;;10.27;;
46078;SDS011;31820;51.880;-0.518;2022-11-15T15:44:40;14.25;;;9.68;;
46078;SDS011;31820;51.880;-0.518;2022-11-15T15:47:12;15.40;;;11.30;;
46078;SDS011;31820;51.880;-0.518;2022-11-15T15:49:40;16.55;;;10.95;;
46078;SDS011;31820;51.880;-0.518;2022-11-15T15:52:05;16.92;;;11.30;;
46078;SDS011;31820;51.880;-0.518;2022-11-15T15:54:31;15.18;;;11.30;;
46078;SDS011;31820;51.880;-0.518;2022-11-15T15:56:56;16.15;;;12.25;;
46078;SDS011;31820;51.880;-0.518;2022-11-15T15:59:22;17.17;;;12.02;;
46078;SDS011;31820;51.880;-0.518;2022-11-15T16:01:47;16.77;;;12.25;;
46078;SDS011;31820;51.880;-0.518;2022-11-15T16:04:12;15.77;;;12.52;;
46078;SDS011;31820;51.880;-0.518;2022-11-15T16:06:38;16.25;;;12.23;;
46078;SDS011;31820;51.880;-0.518;2022-11-15T16:09:12;14.63;;;11.40;;
46078;SDS011;31820;51.880;-0.518;2022-11-15T16:11:41;17.40;;;12.40;;
46078;SDS011;31820;51.880;-0.518;2022-11-15T16:14:08;16.63;;;11.48;;
46078;SDS011;31820;51.880;-0.518;2022-11-15T16:16:34;16.17;;;12.32;;
46078;SDS011;31820;51.880;-0.518;2022-11-15T16:19:01;16.00;;;12.13;;
46078;SDS011;31820;51.880;-0.518;2022-11-15T16:21:27;14.68;;;11.55;;
46078;SDS011;31820;51.880;-0.518;2022-11-15T16:23:52;18.40;;;12.82;;
46078;SDS011;31820;51.880;-0.518;2022-11-15T16:26:23;18.20;;;13.20;;
46078;SDS011;31820;51.880;-0.518;2022-11-15T16:28:50;16.25;;;12.35;;
46078;SDS011;31820;51.880;-0.518;2022-11-15T16:31:16;17.00;;;12.85;;
46078;SDS011;31820;51.880;-0.518;2022-11-15T16:33:45;19.83;;;13.48;;
46078;SDS011;31820;51.880;-0.518;2022-11-15T16:36:23;16.42;;;13.35;;
46078;SDS011;31820;51.880;-0.518;2022-11-15T16:38:51;18.98;;;14.40;;
46078;SDS011;31820;51.880;-0.518;2022-11-15T16:41:17;18.85;;;14.63;;
46078;SDS011;31820;51.880;-0.518;2022-11-15T16:43:46;17.65;;;14.50;;
46078;SDS011;31820;51.880;-0.518;2022-11-15T16:46:17;17.45;;;15.05;;
46078;SDS011;31820;51.880;-0.518;2022-11-15T16:48:44;19.35;;;14.75;;
46078;SDS011;31820;51.880;-0.518;2022-11-15T16:51:10;19.77;;;16.02;;
46078;SDS011;31820;51.880;-0.518;2022-11-15T16:53:36;21.60;;;15.40;;
46078;SDS011;31820;51.880;-0.518;2022-11-15T16:56:01;18.58;;;14.88;;
46078;SDS011;31820;51.880;-0.518;2022-11-15T16:58:28;20.15;;;15.60;;
46078;SDS011;31820;51.880;-0.518;2022-11-15T17:00:54;20.27;;;14.35;;
46078;SDS011;31820;51.880;-0.518;2022-11-15T17:03:24;18.95;;;14.60;;
46078;SDS011;31820;51.880;-0.518;2022-11-15T17:05:50;19.02;;;15.45;;
46078;SDS011;31820;51.880;-0.518;2022-11-15T17:08:15;18.77;;;15.57;;
46078;SDS011;31820;51.880;-0.518;2022-11-15T17:10:41;21.05;;;15.80;;
46078;SDS011;31820;51.880;-0.518;2022-11-15T17:13:12;15.80;;;12.50;;
46078;SDS011;31820;51.880;-0.518;2022-11-15T17:15:38;18.77;;;14.48;;
46078;SDS011;31820;51.880;-0.518;2022-11-15T17:18:04;19.33;;;15.13;;